Prizreni, Kosovo

09:55 AM CEST on tetor 23, 2014 (GMT +0200)
Skopje | Change Station
CLOSE
Current Station
Airport
Location: Skopje-Petrovec,
Elevation: 784 ft
Nearby Weather Stations

Elev 784 ft 41.97 °N, 21.65 °E | Updated 25 minutes ago

Light Rain
Shi I Lehte
41 °F
Feels Like 38 °F
N
5
Era e paqendrueshme Era from PVP

Sot
High -- | Low -- °F
--% Chance of Precip.
Yesterday
High -- | Low -- °F
Precip. -- ne
6:58 AM 5:43 PM
Waning Crescent, 0% visible
Presioni 29.68 ne
Visioni 6.2 milje
Clouds shumica me re 2600 ft
mot i vrenjtur 5000 ft
Ftohtesia E erses 38 °F
Pika E Veses 39 °F
Lageshtira E ajrit 93%
Rainfall 0.00 ne
Snow Depth Not available.
UV 1 out of 12
Pollen Not available.
Air Quality Not available.
Flu Activity Not available.
METAR LWSK 230730Z 30004KT 9999 -RA BKN026 OVC050 05/04 Q1005 NOSIG

More Conditions Fewer Conditions

Presioni 29.68 ne
Visioni 6.2 milje
Clouds shumica me re 2600 ft
mot i vrenjtur 5000 ft
Ftohtesia E erses 38 °F
Pika E Veses 39 °F
Lageshtira E ajrit 93%
Rainfall 0.00 ne
Snow Depth Not available.
UV 1 out of 12
Pollen Not available.
Air Quality Not available.
Flu Activity Not available.
METAR LWSK 230730Z 30004KT 9999 -RA BKN026 OVC050 05/04 Q1005 NOSIG

More Conditions Fewer Conditions

10-Day Weather Forecast

Almanac

Astronomy

Oct. 23, 2014 Rise Set
Actual Time 6:58 AM CEST 5:43 PM CEST
Civil Twilight 6:30 AM CEST 6:11 PM CEST
Nautical Twilight 5:57 AM CEST 6:44 PM CEST
Astronomical Twilight 5:25 AM CEST 7:17 PM CEST
Moon 6:19 AM CEST 5:34 PM CEST
Length Of Visible Light 11h 41m
Length of Day
10h 44m
Tomorrow will be 2m 39s shorter.
Waning Crescent, 0% of the Moon is Illuminated
Sot
Waning Crescent
Oct 23
New
Oct 30
First Quarter
Nov 6
Full
Nov 14
Last Quarter

Community

WunderPhotos

Upload Photos

1,764,194 photos uploaded!

Nearby

Snow Depth

Not available.

Earthquake Activity

City Distance Mag. Time & Date
No recent earthquake activity has been reported nearby.
Minimum magnitude displayed is 2.5.

Coastal Water Temperatures

Vend Temperatura
No Stations Reporting

Nearby Weather Stations